Time;durP1;ratioP1;P1;durP2;ratioP2;P2;SDS_P1;SDS_P2;PMS_P1;PMS_P2;Temp;Humidity;BMP_temperature;BMP_pressure;BME280_temperature;BME280_humidity;BME280_pressure;Samples;Min_cycle;Max_cycle;Signal;HPM_P1;HPM_P2
2024/03/21 00:00:30;;;;;;;36.95;18.20;;;;;;;8.04;100.00;102162.28;5095565;28;20073;-76
2024/03/21 00:02:56;;;;;;;29.73;17.60;;;;;;;8.03;100.00;102155.25;5095646;28;20027;-78
2024/03/21 00:05:22;;;;;;;33.78;18.20;;;;;;;8.04;100.00;102156.97;5077224;28;20071;-77
2024/03/21 00:07:49;;;;;;;34.33;18.42;;;;;;;8.05;100.00;102151.59;5095403;28;20031;-77
2024/03/21 00:10:16;;;;;;;31.88;18.25;;;;;;;8.06;100.00;102152.41;5095293;28;20111;-77
2024/03/21 00:12:42;;;;;;;34.03;18.75;;;;;;;8.06;100.00;102155.94;5095308;28;20028;-77
2024/03/21 00:15:08;;;;;;;32.28;18.40;;;;;;;8.05;100.00;102154.22;5095682;28;20105;-77
2024/03/21 00:17:34;;;;;;;38.08;19.58;;;;;;;8.06;100.00;102163.03;5095462;28;20066;-76
2024/03/21 00:20:03;;;;;;;34.80;18.52;;;;;;;8.12;100.00;102167.97;5094933;28;20109;-77
2024/03/21 00:22:29;;;;;;;35.15;19.02;;;;;;;8.23;100.00;102189.41;5094290;28;20028;-77
2024/03/21 00:24:54;;;;;;;33.95;18.58;;;;;;;8.32;100.00;102203.06;5076986;28;20065;-76
2024/03/21 00:27:20;;;;;;;34.97;18.60;;;;;;;8.47;100.00;102197.72;5094838;28;20031;-76
2024/03/21 00:29:45;;;;;;;31.70;17.17;;;;;;;8.60;100.00;102194.34;5095390;28;20032;-76
2024/03/21 00:32:10;;;;;;;33.80;18.17;;;;;;;8.65;100.00;102203.72;5094793;28;20081;-76
2024/03/21 00:34:36;;;;;;;32.15;16.98;;;;;;;8.71;100.00;102199.00;5094690;28;20437;-76
2024/03/21 00:37:01;;;;;;;27.60;15.98;;;;;;;8.71;100.00;102193.69;5094700;28;20568;-77
2024/03/21 00:39:26;;;;;;;38.95;17.33;;;;;;;8.71;100.00;102183.91;5095141;28;20032;-76
2024/03/21 00:41:52;;;;;;;28.27;15.63;;;;;;;8.73;100.00;102179.38;5094617;28;20038;-75
2024/03/21 00:44:17;;;;;;;32.72;17.15;;;;;;;8.72;100.00;102169.72;5094403;28;20032;-75
2024/03/21 00:46:42;;;;;;;31.80;16.65;;;;;;;8.76;100.00;102176.53;5094752;28;20122;-75
2024/03/21 00:49:11;;;;;;;34.30;17.52;;;;;;;8.79;100.00;102179.00;5094464;28;20028;-74
2024/03/21 00:51:38;;;;;;;28.95;16.27;;;;;;;8.82;100.00;102194.75;5077038;28;20410;-76
2024/03/21 00:54:03;;;;;;;29.90;15.80;;;;;;;8.83;100.00;102204.38;5094559;28;20031;-76
2024/03/21 00:56:29;;;;;;;36.28;16.45;;;;;;;8.82;100.00;102207.13;5094678;28;20467;-76
2024/03/21 00:58:58;;;;;;;35.80;17.58;;;;;;;8.80;100.00;102199.28;5094378;28;20032;-75
2024/03/21 01:01:23;;;;;;;33.53;16.85;;;;;;;8.78;100.00;102209.13;5094200;28;20090;-75
2024/03/21 01:03:49;;;;;;;38.90;17.48;;;;;;;8.76;100.00;102211.03;5094161;28;20039;-76
2024/03/21 01:06:14;;;;;;;34.38;16.45;;;;;;;8.74;100.00;102214.72;5094205;28;20036;-76
2024/03/21 01:08:39;;;;;;;40.67;18.13;;;;;;;8.73;100.00;102228.94;5076123;28;20523;-75
2024/03/21 01:11:05;;;;;;;39.92;18.00;;;;;;;8.74;100.00;102215.56;5093975;28;20055;-80
2024/03/21 01:13:30;;;;;;;34.65;17.02;;;;;;;8.73;100.00;102207.72;5094045;28;20079;-77
2024/03/21 01:15:56;;;;;;;33.25;17.42;;;;;;;8.72;100.00;102212.19;5094019;28;20030;-75
2024/03/21 01:18:34;;;;;;;36.40;17.48;;;;;;;8.70;100.00;102215.84;5094030;28;20024;-76
2024/03/21 01:21:00;;;;;;;37.63;17.48;;;;;;;8.68;100.00;102209.81;5094229;28;20050;-76
2024/03/21 01:23:25;;;;;;;32.75;17.25;;;;;;;8.65;100.00;102205.53;5093854;28;20429;-76
2024/03/21 01:25:50;;;;;;;30.95;17.48;;;;;;;8.61;100.00;102215.47;5093954;28;20036;-76
2024/03/21 01:28:16;;;;;;;29.38;15.52;;;;;;;8.58;100.00;102209.50;5075629;28;20028;-76
2024/03/21 01:30:41;;;;;;;34.00;16.35;;;;;;;8.53;100.00;102217.72;5094271;28;20077;-76
2024/03/21 01:33:07;;;;;;;27.65;13.57;;;;;;;8.50;100.00;102209.97;5093777;28;20035;-76
2024/03/21 01:35:32;;;;;;;24.25;13.07;;;;;;;8.42;100.00;102207.72;5093519;28;20032;-74
2024/03/21 01:37:58;;;;;;;25.75;13.13;;;;;;;8.35;100.00;102216.16;5093602;28;20066;-74
2024/03/21 01:40:24;;;;;;;28.73;12.15;;;;;;;8.26;100.00;102213.09;5093430;28;20047;-74
2024/03/21 01:42:50;;;;;;;23.65;11.48;;;;;;;8.21;100.00;102209.88;5093891;28;20122;-74
2024/03/21 01:45:17;;;;;;;24.83;11.57;;;;;;;8.17;100.00;102210.13;5093811;28;20032;-75
2024/03/21 01:47:42;;;;;;;23.27;11.38;;;;;;;8.14;100.00;102213.81;5093487;28;20035;-75
2024/03/21 01:50:08;;;;;;;26.60;11.35;;;;;;;8.13;100.00;102217.41;5093623;28;20032;-74
2024/03/21 01:52:35;;;;;;;16.98;10.13;;;;;;;8.14;100.00;102215.63;5093637;28;20039;-75
2024/03/21 01:55:01;;;;;;;24.80;10.48;;;;;;;8.15;100.00;102222.63;5093379;28;20072;-74
2024/03/21 01:57:27;;;;;;;20.95;10.00;;;;;;;8.13;100.00;102217.41;5093271;28;20028;-76
2024/03/21 01:59:56;;;;;;;19.88;10.00;;;;;;;8.12;100.00;102219.22;5093550;28;20373;-76
2024/03/21 02:02:22;;;;;;;18.23;9.10;;;;;;;8.12;100.00;102232.47;5093239;28;20077;-74
2024/03/21 02:04:48;;;;;;;16.27;8.90;;;;;;;8.10;100.00;102225.53;5093108;28;20372;-74
2024/03/21 02:07:16;;;;;;;19.15;9.15;;;;;;;8.08;100.00;102230.94;5093052;28;20031;-75
2024/03/21 02:09:41;;;;;;;18.00;8.43;;;;;;;8.06;100.00;102221.34;5093815;28;20027;-75
2024/03/21 02:12:08;;;;;;;16.70;7.95;;;;;;;8.03;100.00;102229.47;5093097;28;20086;-75
2024/03/21 02:14:39;;;;;;;15.40;8.30;;;;;;;8.03;100.00;102234.78;5074653;28;20114;-75
2024/03/21 02:17:04;;;;;;;;;;;;;;;8.01;100.00;102242.81;5075498;28;20472;-75
2024/03/21 02:19:30;;;;;;;13.07;7.45;;;;;;;8.00;100.00;102249.09;5092943;28;19919;-75
2024/03/21 02:24:39;;;;;;;16.65;8.27;;;;;;;7.92;100.00;102262.75;5093201;28;20077;-75
2024/03/21 02:27:05;;;;;;;12.85;6.45;;;;;;;7.92;100.00;102260.09;5092967;28;20024;-75
2024/03/21 02:29:30;;;;;;;8.45;5.40;;;;;;;7.87;100.00;102258.66;5092805;28;20036;-75
2024/03/21 02:31:56;;;;;;;12.98;5.70;;;;;;;7.79;100.00;102256.44;5093208;28;20089;-76
2024/03/21 02:34:21;;;;;;;8.40;5.15;;;;;;;7.70;100.00;102247.22;5092831;28;20039;-77
2024/03/21 02:36:46;;;;;;;17.17;5.07;;;;;;;7.66;100.00;102245.69;5092731;28;20028;-75
2024/03/21 02:39:12;;;;;;;6.78;4.28;;;;;;;7.62;100.00;102238.00;5093036;28;20032;-75
2024/03/21 02:41:37;;;;;;;11.25;5.35;;;;;;;7.57;100.00;102248.84;5092909;28;20028;-75
2024/03/21 02:44:02;;;;;;;11.35;4.88;;;;;;;7.53;100.00;102248.16;5057900;28;20036;-76
2024/03/21 02:46:28;;;;;;;8.98;4.55;;;;;;;7.51;100.00;102254.47;5094418;28;20086;-76
2024/03/21 02:48:53;;;;;;;7.05;4.18;;;;;;;7.51;100.00;102257.09;5097235;28;20056;-76
2024/03/21 02:51:22;;;;;;;12.20;5.25;;;;;;;7.49;100.00;102256.34;5097473;28;20134;-79
2024/03/21 02:53:47;;;;;;;10.25;4.88;;;;;;;7.47;100.00;102268.84;5079279;28;20024;-75
2024/03/21 02:56:12;;;;;;;6.88;4.05;;;;;;;7.46;100.00;102267.13;5097090;28;20026;-75
2024/03/21 02:58:38;;;;;;;6.13;3.00;;;;;;;7.44;100.00;102276.94;5097064;28;20410;-75
2024/03/21 03:01:03;;;;;;;7.47;3.22;;;;;;;7.39;100.00;102288.63;5096788;28;20494;-76
2024/03/21 03:03:28;;;;;;;7.45;4.22;;;;;;;7.37;100.00;102289.66;5096495;28;20453;-76
2024/03/21 03:05:54;;;;;;;11.45;5.93;;;;;;;7.33;100.00;102299.56;5078453;28;20040;-75
2024/03/21 03:08:19;;;;;;;9.30;5.72;;;;;;;7.32;100.00;102303.13;5096795;28;20078;-75
2024/03/21 03:10:44;;;;;;;10.27;6.72;;;;;;;7.28;100.00;102303.38;5096338;28;20393;-75
2024/03/21 03:13:10;;;;;;;15.43;7.47;;;;;;;7.26;100.00;102313.22;5096159;28;20038;-75
2024/03/21 03:15:35;;;;;;;14.52;6.55;;;;;;;7.26;100.00;102318.50;5096526;28;20036;-75
2024/03/21 03:18:00;;;;;;;16.83;6.47;;;;;;;7.25;100.00;102322.94;5096757;28;20028;-77
2024/03/21 03:20:26;;;;;;;19.15;7.07;;;;;;;7.23;100.00;102322.16;5096286;28;20024;-75
2024/03/21 03:22:52;;;;;;;17.02;6.65;;;;;;;7.20;100.00;102320.53;5096269;28;20028;-75
2024/03/21 03:25:18;;;;;;;16.27;6.38;;;;;;;7.14;100.00;102331.44;5096237;28;20075;-77
2024/03/21 03:27:43;;;;;;;10.52;5.18;;;;;;;7.07;100.00;102336.19;5096148;28;20484;-76
2024/03/21 03:30:09;;;;;;;13.15;6.70;;;;;;;7.03;100.00;102345.25;5096766;28;20085;-76
2024/03/21 03:32:37;;;;;;;14.55;7.25;;;;;;;6.99;100.00;102338.38;5095948;28;20076;-76
2024/03/21 03:37:46;;;;;;;8.93;4.55;;;;;;;6.88;100.00;102338.06;5096401;28;20403;-76
2024/03/21 03:40:12;;;;;;;7.72;4.90;;;;;;;6.85;100.00;102340.88;5096142;28;20032;-75
2024/03/21 03:42:37;;;;;;;12.68;6.75;;;;;;;6.84;100.00;102340.03;5096278;28;20195;-77
2024/03/21 03:45:03;;;;;;;19.20;7.10;;;;;;;6.83;100.00;102337.47;5095921;28;20028;-75
2024/03/21 03:47:28;;;;;;;23.92;8.15;;;;;;;6.81;100.00;102340.19;5095793;28;20073;-76
2024/03/21 03:49:55;;;;;;;17.45;8.75;;;;;;;6.81;100.00;102347.28;5095756;28;20019;-75
2024/03/21 03:52:20;;;;;;;12.20;7.68;;;;;;;6.80;100.00;102348.19;5095893;28;20036;-75
2024/03/21 03:54:45;;;;;;;10.77;6.50;;;;;;;6.80;100.00;102356.13;5095889;28;20024;-75
2024/03/21 03:57:11;;;;;;;14.85;7.15;;;;;;;6.80;100.00;102358.78;5095015;28;20025;-75
2024/03/21 03:59:36;;;;;;;14.75;5.75;;;;;;;6.77;100.00;102359.78;5095489;28;20024;-76
2024/03/21 04:02:02;;;;;;;16.42;6.97;;;;;;;6.78;100.00;102366.81;5095674;28;20074;-75
2024/03/21 04:04:27;;;;;;;8.95;6.22;;;;;;;6.77;100.00;102373.03;5095779;28;20024;-75
2024/03/21 04:06:54;;;;;;;12.98;5.50;;;;;;;6.79;100.00;102376.47;5095799;28;20036;-75
2024/03/21 04:09:19;;;;;;;7.40;3.80;;;;;;;6.79;100.00;102379.09;5095502;28;20069;-74
2024/03/21 04:11:44;;;;;;;6.78;3.83;;;;;;;6.80;100.00;102374.66;5095336;28;20028;-77
2024/03/21 04:14:09;;;;;;;10.45;4.45;;;;;;;6.81;100.00;102379.03;5095511;28;20072;-75
2024/03/21 04:16:35;;;;;;;8.85;4.70;;;;;;;6.79;100.00;102387.03;5095514;28;20028;-75
2024/03/21 04:19:00;;;;;;;11.18;4.57;;;;;;;6.77;100.00;102388.03;5095370;28;20059;-75
2024/03/21 04:21:25;;;;;;;13.05;6.22;;;;;;;6.70;100.00;102391.00;5095566;28;20032;-75
2024/03/21 04:23:51;;;;;;;19.20;5.78;;;;;;;6.74;100.00;102398.78;5095426;28;20032;-77
2024/03/21 04:26:16;;;;;;;9.60;4.10;;;;;;;6.78;100.00;102403.00;5095525;28;20028;-75
2024/03/21 04:28:42;;;;;;;9.18;5.03;;;;;;;6.81;100.00;102405.50;5095084;28;20096;-75
2024/03/21 04:31:07;;;;;;;10.57;3.78;;;;;;;6.82;100.00;102401.88;5095433;28;20532;-75
2024/03/21 04:33:32;;;;;;;10.57;3.97;;;;;;;6.84;100.00;102407.97;5095013;28;20443;-77
2024/03/21 04:35:58;;;;;;;9.60;3.78;;;;;;;6.86;100.00;102409.59;5076941;28;20028;-75
2024/03/21 04:38:23;;;;;;;13.18;3.95;;;;;;;6.88;100.00;102413.03;5095217;28;20360;-75
2024/03/21 04:40:49;;;;;;;9.68;3.60;;;;;;;6.91;100.00;102406.72;5094875;28;20031;-75
2024/03/21 04:43:15;;;;;;;13.95;3.20;;;;;;;6.94;100.00;102397.78;5076902;28;20035;-75
2024/03/21 04:45:40;;;;;;;11.38;2.65;;;;;;;6.93;100.00;102404.88;5095310;28;20339;-75
2024/03/21 04:48:06;;;;;;;7.78;2.33;;;;;;;6.94;100.00;102406.59;5094835;28;20165;-74
2024/03/21 04:50:32;;;;;;;7.72;2.20;;;;;;;6.96;100.00;102406.50;5094696;28;20033;-77
2024/03/21 04:52:57;;;;;;;7.45;2.60;;;;;;;6.97;100.00;102410.84;5094901;28;20027;-77
2024/03/21 04:55:23;;;;;;;5.32;2.30;;;;;;;6.98;100.00;102415.22;5094586;28;20062;-75
2024/03/21 04:57:48;;;;;;;9.18;2.00;;;;;;;6.97;100.00;102422.31;5094595;28;20031;-75
2024/03/21 05:00:13;;;;;;;10.82;2.10;;;;;;;6.95;100.00;102423.31;5094434;28;20420;-75
2024/03/21 05:02:40;;;;;;;8.43;1.60;;;;;;;6.92;100.00;102437.53;5094436;28;20032;-75
2024/03/21 05:05:05;;;;;;;12.57;1.98;;;;;;;6.88;100.00;102428.91;5094297;28;20043;-77
2024/03/21 05:07:32;;;;;;;13.75;1.50;;;;;;;6.88;100.00;102430.69;5094369;28;20028;-75
2024/03/21 05:09:57;;;;;;;8.75;1.17;;;;;;;6.86;100.00;102444.00;5093898;28;20024;-76
2024/03/21 05:12:23;;;;;;;5.72;1.77;;;;;;;6.85;100.00;102444.06;5076090;28;20028;-75
2024/03/21 05:14:48;;;;;;;6.50;2.03;;;;;;;6.84;100.00;102440.56;5094447;28;20103;-75
2024/03/21 05:17:16;;;;;;;8.57;2.08;;;;;;;6.84;100.00;102440.56;5094331;28;20432;-74
2024/03/21 05:19:42;;;;;;;9.38;2.10;;;;;;;6.84;100.00;102445.03;5094581;28;20386;-75
2024/03/21 05:22:08;;;;;;;5.03;1.25;;;;;;;6.80;100.00;102444.28;5094059;28;20032;-75
2024/03/21 05:24:33;;;;;;;7.80;1.55;;;;;;;6.79;100.00;102442.59;5094029;28;20044;-76
2024/03/21 05:27:00;;;;;;;12.02;2.13;;;;;;;6.76;100.00;102445.38;5093931;28;20123;-75
2024/03/21 05:29:26;;;;;;;7.10;1.42;;;;;;;6.73;100.00;102452.59;5094235;28;20039;-76
2024/03/21 05:31:51;;;;;;;9.13;1.73;;;;;;;6.69;100.00;102460.69;5094404;28;20024;-77
2024/03/21 05:34:16;;;;;;;9.68;2.30;;;;;;;6.66;100.00;102465.28;5093893;28;20488;-76
2024/03/21 05:36:42;;;;;;;8.27;3.08;;;;;;;6.64;100.00;102475.06;5093825;28;20377;-77
2024/03/21 05:39:08;;;;;;;7.68;2.67;;;;;;;6.63;100.00;102478.66;5093996;28;20057;-76
2024/03/21 05:41:33;;;;;;;6.40;2.22;;;;;;;6.62;100.00;102476.94;5094096;28;20032;-76
2024/03/21 05:43:58;;;;;;;5.13;2.30;;;;;;;6.63;100.00;102478.66;5093701;28;20036;-75
2024/03/21 05:46:26;;;;;;;8.45;2.28;;;;;;;6.62;100.00;102484.88;5093707;28;20093;-77
2024/03/21 05:48:55;;;;;;;9.50;1.90;;;;;;;6.60;100.00;102473.50;5093561;28;20479;-77
2024/03/21 05:51:21;;;;;;;8.65;1.60;;;;;;;6.59;100.00;102477.09;5093835;28;20138;-77
2024/03/21 05:53:47;;;;;;;11.20;1.60;;;;;;;6.56;100.00;102486.03;5093979;28;20095;-75
2024/03/21 05:56:14;;;;;;;5.43;1.40;;;;;;;6.51;100.00;102488.03;5094250;28;20020;-74
2024/03/21 05:58:39;;;;;;;6.88;1.30;;;;;;;6.50;100.00;102494.25;5075368;28;20109;-77
2024/03/21 06:01:22;;;;;;;8.05;1.70;;;;;;;6.47;100.00;102495.25;5093373;28;20460;-77
2024/03/21 06:03:48;;;;;;;7.68;1.80;;;;;;;6.46;100.00;102501.44;5093624;28;20411;-78
2024/03/21 06:06:14;;;;;;;6.65;1.50;;;;;;;6.47;100.00;102511.09;5093792;28;20024;-76
2024/03/21 06:08:39;;;;;;;7.82;2.47;;;;;;;6.44;100.00;102499.81;5093594;28;20025;-77
2024/03/21 06:11:05;;;;;;;7.28;2.00;;;;;;;6.43;100.00;102508.69;5093221;28;20500;-76
2024/03/21 06:13:30;;;;;;;7.47;1.73;;;;;;;6.43;100.00;102504.22;5093114;28;20135;-77
2024/03/21 06:15:55;;;;;;;10.73;2.00;;;;;;;6.45;100.00;102505.03;5093716;28;20032;-77
2024/03/21 06:18:21;;;;;;;10.52;2.33;;;;;;;6.47;100.00;102507.63;5093356;28;20058;-77
2024/03/21 06:20:46;;;;;;;13.93;2.33;;;;;;;6.49;100.00;102514.56;5092412;28;20059;-77
2024/03/21 06:23:12;;;;;;;8.50;1.90;;;;;;;6.49;100.00;102517.19;5093280;28;20040;-77
2024/03/21 06:25:38;;;;;;;14.82;3.42;;;;;;;6.52;100.00;102517.06;5093138;28;20024;-76
2024/03/21 06:28:06;;;;;;;7.68;1.70;;;;;;;6.56;100.00;102524.84;5093074;28;20065;-76
2024/03/21 06:30:32;;;;;;;6.70;1.75;;;;;;;6.57;100.00;102518.59;5093008;28;20119;-75
2024/03/21 06:32:57;;;;;;;5.90;1.58;;;;;;;6.58;100.00;102523.81;5092492;28;20107;-75
2024/03/21 06:35:23;;;;;;;8.85;1.70;;;;;;;6.56;100.00;102523.03;5092652;28;20020;-77
2024/03/21 06:37:53;;;;;;;6.20;1.65;;;;;;;6.57;100.00;102526.53;5074822;28;20027;-76
2024/03/21 06:40:18;;;;;;;6.15;1.58;;;;;;;6.56;100.00;102520.41;5092579;28;20034;-77
2024/03/21 06:42:44;;;;;;;11.90;1.55;;;;;;;6.57;100.00;102521.25;5092793;28;20103;-76
2024/03/21 06:45:10;;;;;;;10.98;1.63;;;;;;;6.57;100.00;102523.88;5092385;28;20490;-77
2024/03/21 06:47:39;;;;;;;10.13;1.52;;;;;;;6.59;100.00;102538.78;5092780;28;20421;-76
2024/03/21 06:50:06;;;;;;;10.63;1.70;;;;;;;6.63;100.00;102540.34;5092484;28;20035;-77
2024/03/21 06:52:31;;;;;;;7.78;1.10;;;;;;;6.64;100.00;102544.72;5092457;28;20115;-76
2024/03/21 06:54:57;;;;;;;6.65;1.08;;;;;;;6.64;100.00;102536.78;5092254;28;20024;-76
2024/03/21 06:57:25;;;;;;;9.02;1.65;;;;;;;6.67;100.00;102539.28;5092479;28;20434;-77
2024/03/21 06:59:52;;;;;;;5.78;1.33;;;;;;;6.68;100.00;102548.06;5092315;28;20024;-78
2024/03/21 07:02:17;;;;;;;5.10;1.30;;;;;;;6.69;100.00;102552.44;5092073;28;20115;-77
2024/03/21 07:04:42;;;;;;;8.35;1.58;;;;;;;6.68;100.00;102561.28;5092486;28;20119;-78
2024/03/21 07:07:08;;;;;;;8.23;1.77;;;;;;;6.69;100.00;102573.59;5092432;28;20058;-75
2024/03/21 07:09:33;;;;;;;3.63;0.93;;;;;;;6.71;100.00;102575.22;5092497;28;20081;-77
2024/03/21 07:11:58;;;;;;;5.25;0.88;;;;;;;6.74;100.00;102584.81;5074030;28;20059;-77
2024/03/21 07:14:32;;;;;;;10.35;1.13;;;;;;;6.77;100.00;102592.59;5092010;28;20444;-78
2024/03/21 07:16:58;;;;;;;7.07;1.63;;;;;;;6.79;100.00;102598.69;5092512;28;20085;-78
2024/03/21 07:19:23;;;;;;;5.93;1.95;;;;;;;6.80;100.00;102602.19;5074071;28;20024;-77
2024/03/21 07:21:49;;;;;;;4.53;1.83;;;;;;;6.81;100.00;102614.50;5092504;28;20456;-78
2024/03/21 07:24:15;;;;;;;10.48;1.92;;;;;;;6.81;100.00;102606.56;5092017;28;20063;-77
2024/03/21 07:26:40;;;;;;;7.10;1.70;;;;;;;6.85;100.00;102614.28;5074214;28;20123;-78
2024/03/21 07:29:07;;;;;;;5.28;1.30;;;;;;;6.88;100.00;102603.56;5074326;28;20020;-78
2024/03/21 07:31:32;;;;;;;6.70;1.70;;;;;;;6.89;100.00;102610.53;5092421;28;20028;-78
2024/03/21 07:33:57;;;;;;;7.88;1.85;;;;;;;6.88;100.00;102606.19;5095873;28;20027;-76
2024/03/21 07:36:23;;;;;;;5.65;1.50;;;;;;;6.89;100.00;102607.91;5095713;28;20047;-77
2024/03/21 07:38:48;;;;;;;7.55;1.52;;;;;;;6.94;100.00;102614.78;5095862;28;20108;-76
2024/03/21 07:41:13;;;;;;;10.23;1.30;;;;;;;6.99;100.00;102603.03;5095564;28;20423;-76
2024/03/21 07:43:42;;;;;;;11.88;1.55;;;;;;;7.07;100.00;102597.38;5077414;28;20039;-77
2024/03/21 07:46:07;;;;;;;8.05;1.73;;;;;;;7.07;100.00;102600.88;5095605;28;20032;-77
2024/03/21 07:48:33;;;;;;;17.83;1.70;;;;;;;7.08;100.00;102601.75;5095733;28;20076;-76
2024/03/21 07:50:58;;;;;;;9.35;1.45;;;;;;;7.13;100.00;102604.19;5095568;28;20463;-76
2024/03/21 07:53:23;;;;;;;10.85;1.35;;;;;;;7.23;100.00;102603.66;5095447;28;20391;-77
2024/03/21 07:55:48;;;;;;;9.27;1.30;;;;;;;7.36;100.00;102603.06;5095380;28;20476;-76
2024/03/21 07:58:14;;;;;;;12.75;1.45;;;;;;;7.47;100.00;102597.25;5095529;28;20030;-76
2024/03/21 08:00:39;;;;;;;4.10;1.25;;;;;;;7.57;100.00;102603.81;5095356;28;20434;-76
2024/03/21 08:03:04;;;;;;;3.25;1.15;;;;;;;7.64;100.00;102599.91;5095208;28;20035;-77
2024/03/21 08:05:31;;;;;;;4.80;1.10;;;;;;;7.65;100.00;102606.91;5077189;28;20046;-78
2024/03/21 08:07:57;;;;;;;11.77;1.38;;;;;;;7.63;100.00;102619.41;5095381;28;20487;-79
2024/03/21 08:10:23;;;;;;;8.10;1.45;;;;;;;7.66;100.00;102615.72;5095389;28;20024;-78
2024/03/21 08:12:48;;;;;;;5.18;1.55;;;;;;;7.68;100.00;102633.25;5095444;28;20031;-78
2024/03/21 08:15:13;;;;;;;6.82;1.02;;;;;;;7.68;100.00;102633.25;5094957;28;20117;-77
2024/03/21 08:17:38;;;;;;;5.45;1.65;;;;;;;7.64;100.00;102637.00;5095244;28;20123;-77
2024/03/21 08:20:04;;;;;;;10.00;1.15;;;;;;;7.61;100.00;102639.78;5095033;28;20035;-77
2024/03/21 08:22:31;;;;;;;16.63;1.52;;;;;;;7.52;100.00;102637.59;5095272;28;20158;-77
2024/03/21 08:24:56;;;;;;;4.72;1.40;;;;;;;7.52;100.00;102643.75;5094833;28;20118;-79
2024/03/21 08:27:22;;;;;;;2.85;0.90;;;;;;;7.55;100.00;102643.63;5094786;28;20078;-77
2024/03/21 08:29:50;;;;;;;6.53;1.38;;;;;;;7.66;100.00;102645.72;5095140;28;20026;-78
2024/03/21 08:32:18;;;;;;;6.15;1.33;;;;;;;7.71;100.00;102641.06;5094691;28;20056;-78
2024/03/21 08:34:44;;;;;;;5.90;0.85;;;;;;;7.89;100.00;102647.22;5094986;28;20043;-78
2024/03/21 08:37:09;;;;;;;4.85;0.95;;;;;;;8.01;100.00;102647.56;5094842;28;20488;-76
2024/03/21 08:39:34;;;;;;;3.97;1.65;;;;;;;8.09;100.00;102646.22;5094656;28;20134;-77
2024/03/21 08:42:00;;;;;;;2.05;1.10;;;;;;;8.26;100.00;102650.66;5094704;28;20391;-80
2024/03/21 08:44:25;;;;;;;5.57;1.20;;;;;;;8.41;100.00;102648.13;5093611;28;20051;-77
2024/03/21 08:46:50;;;;;;;4.43;1.10;;;;;;;8.52;100.00;102643.13;5094721;28;20522;-77
2024/03/21 08:49:16;;;;;;;7.72;1.00;;;;;;;8.48;100.00;102644.25;5094417;28;20031;-76
2024/03/21 08:51:41;;;;;;;7.03;1.17;;;;;;;8.47;100.00;102639.88;5094668;28;20032;-76
2024/03/21 08:54:08;;;;;;;3.88;0.98;;;;;;;8.50;100.00;102647.69;5094372;28;20042;-78
2024/03/21 08:56:34;;;;;;;9.00;1.40;;;;;;;8.49;100.00;102643.31;5094534;28;20448;-77
2024/03/21 08:58:59;;;;;;;3.95;1.85;;;;;;;8.49;100.00;102638.00;5094246;28;20394;-76
2024/03/21 09:01:25;;;;;;;4.88;1.10;;;;;;;8.48;100.00;102649.56;5076034;28;20031;-77
2024/03/21 09:03:50;;;;;;;3.88;1.65;;;;;;;8.46;100.00;102647.00;5094312;28;20027;-76
2024/03/21 09:06:16;;;;;;;3.05;1.00;;;;;;;8.54;100.00;102654.53;5094144;28;20382;-75
2024/03/21 09:08:41;;;;;;;2.50;1.25;;;;;;;8.49;100.00;102653.91;5094121;28;20077;-75
2024/03/21 09:11:07;;;;;;;6.75;0.98;;;;;;;8.32;100.00;102660.09;5075966;28;20028;-75
2024/03/21 09:13:32;;;;;;;2.72;1.00;;;;;;;8.18;100.00;102662.59;5093890;28;20056;-76
2024/03/21 09:15:57;;;;;;;3.42;1.13;;;;;;;8.18;100.00;102667.88;5094688;28;20036;-76
2024/03/21 09:18:23;;;;;;;5.38;1.20;;;;;;;8.12;100.00;102672.59;5094068;28;20047;-75
2024/03/21 09:20:50;;;;;;;3.92;1.05;;;;;;;8.11;100.00;102672.66;5093879;28;20472;-78
2024/03/21 09:23:16;;;;;;;2.83;1.35;;;;;;;8.20;100.00;102681.94;5093750;28;20035;-77
2024/03/21 09:25:41;;;;;;;3.45;1.13;;;;;;;8.26;100.00;102686.94;5093812;28;20035;-76
2024/03/21 09:28:07;;;;;;;3.28;1.35;;;;;;;8.38;100.00;102688.09;5094059;28;20039;-75
2024/03/21 09:30:32;;;;;;;3.67;0.90;;;;;;;8.46;100.00;102689.44;5093643;28;20040;-75
2024/03/21 09:32:57;;;;;;;2.97;0.95;;;;;;;8.44;100.00;102686.00;5093585;28;20039;-77
2024/03/21 09:35:23;;;;;;;6.22;0.93;;;;;;;8.47;100.00;102684.97;5093607;28;20031;-75
2024/03/21 09:37:48;;;;;;;2.45;1.00;;;;;;;8.54;100.00;102693.47;5093761;28;20028;-75
2024/03/21 09:40:17;;;;;;;11.27;1.17;;;;;;;8.56;100.00;102684.50;5093441;28;20031;-75
2024/03/21 09:42:42;;;;;;;3.50;0.98;;;;;;;8.54;100.00;102693.47;5093484;28;20028;-75
2024/03/21 09:45:12;;;;;;;4.45;0.75;;;;;;;8.57;100.00;102709.22;5093361;28;20028;-75
2024/03/21 09:47:39;;;;;;;5.13;0.95;;;;;;;8.52;100.00;102704.16;5093357;28;20055;-76
2024/03/21 09:50:08;;;;;;;2.72;0.70;;;;;;;8.45;100.00;102706.28;5075065;28;20020;-75
2024/03/21 09:52:34;;;;;;;2.55;0.82;;;;;;;8.45;100.00;102708.09;5093276;28;20373;-75
2024/03/21 09:54:59;;;;;;;4.88;1.02;;;;;;;8.45;100.00;102716.06;5093222;28;20107;-74
2024/03/21 09:57:25;;;;;;;3.70;1.30;;;;;;;8.34;100.00;102718.34;5093509;28;20119;-74
2024/03/21 09:59:50;;;;;;;1.55;1.08;;;;;;;8.35;100.00;102723.56;5093744;28;20111;-73
2024/03/21 10:02:15;;;;;;;3.65;1.25;;;;;;;8.40;100.00;102732.16;5093726;28;20024;-75
2024/03/21 10:04:47;;;;;;;5.20;1.20;;;;;;;8.43;100.00;102739.09;5093229;28;20028;-74
2024/03/21 10:07:21;;;;;;;4.03;1.52;;;;;;;8.45;100.00;102743.44;5075220;28;20032;-74
2024/03/21 10:09:53;;;;;;;4.13;1.20;;;;;;;8.49;100.00;102740.63;5093372;28;20059;-74
2024/03/21 10:12:19;;;;;;;2.65;1.23;;;;;;;8.43;100.00;102745.28;5093707;28;20127;-75
2024/03/21 10:14:44;;;;;;;4.28;1.30;;;;;;;8.35;100.00;102744.81;5093069;28;20484;-73
2024/03/21 10:17:10;;;;;;;5.45;1.52;;;;;;;8.38;100.00;102742.00;5075260;28;20032;-73
2024/03/21 10:19:35;;;;;;;3.03;1.00;;;;;;;8.43;100.00;102745.28;5093101;28;20471;-74
2024/03/21 10:22:00;;;;;;;3.60;1.20;;;;;;;8.28;100.00;102738.97;5093468;28;20073;-74
2024/03/21 10:24:26;;;;;;;5.70;1.10;;;;;;;8.26;100.00;102738.16;5093264;28;20082;-74
2024/03/21 10:26:52;;;;;;;2.85;1.02;;;;;;;8.36;100.00;102729.72;5093189;28;20472;-74
2024/03/21 10:29:18;;;;;;;5.45;1.10;;;;;;;8.36;100.00;102725.31;5093726;28;20050;-74
2024/03/21 10:31:45;;;;;;;2.75;1.60;;;;;;;8.44;100.00;102725.78;5093094;28;20472;-74
2024/03/21 10:34:11;;;;;;;3.88;0.93;;;;;;;8.42;100.00;102724.97;5093187;28;20042;-74
2024/03/21 10:36:37;;;;;;;6.72;1.27;;;;;;;8.30;100.00;102731.78;5092983;28;20109;-74
2024/03/21 10:39:03;;;;;;;3.72;1.00;;;;;;;8.30;100.00;102730.94;5093125;28;20055;-74
2024/03/21 10:41:32;;;;;;;4.30;1.30;;;;;;;8.29;100.00;102730.06;5093244;28;20027;-73
2024/03/21 10:44:04;;;;;;;2.60;1.23;;;;;;;8.32;100.00;102733.50;5092945;28;20024;-74
2024/03/21 10:46:30;;;;;;;1.00;0.98;;;;;;;8.36;100.00;102725.31;5093245;28;20020;-74
2024/03/21 10:49:00;;;;;;;2.05;1.15;;;;;;;8.43;100.00;102726.72;5092982;28;20364;-74
2024/03/21 10:51:25;;;;;;;1.70;0.98;;;;;;;8.59;100.00;102712.66;5093009;28;20517;-73
2024/03/21 10:53:58;;;;;;;5.45;1.30;;;;;;;8.80;100.00;102710.69;5092790;28;20019;-73
2024/03/21 10:56:29;;;;;;;2.78;0.95;;;;;;;8.89;100.00;102714.63;5093099;28;20024;-73
2024/03/21 10:58:58;;;;;;;3.95;1.15;;;;;;;9.08;100.00;102717.16;5093406;28;20106;-73
2024/03/21 11:01:38;;;;;;;6.82;1.20;;;;;;;9.32;100.00;102718.47;5093133;28;20036;-73
2024/03/21 11:04:10;;;;;;;2.30;1.30;;;;;;;9.64;100.00;102725.56;5092769;28;20024;-73
2024/03/21 11:06:37;;;;;;;3.90;1.30;;;;;;;9.83;100.00;102726.22;5092749;28;20055;-73
2024/03/21 11:09:04;;;;;;;2.75;1.42;;;;;;;9.82;100.00;102739.63;5097223;28;20024;-73
2024/03/21 11:11:30;;;;;;;2.60;1.40;;;;;;;9.73;100.00;102742.81;5096767;28;20050;-74
2024/03/21 11:14:07;;;;;;;3.38;1.50;;;;;;;9.49;100.00;102748.56;5097549;28;20056;-74
2024/03/21 11:16:33;;;;;;;2.80;1.35;;;;;;;9.27;100.00;102754.19;5096578;28;20093;-73
2024/03/21 11:18:58;;;;;;;3.33;1.30;;;;;;;9.14;100.00;102765.47;5096568;28;20047;-75